Time;durP1;ratioP1;P1;durP2;ratioP2;P2;SDS_P1;SDS_P2;PMS_P1;PMS_P2;Temp;Humidity;BMP_temperature;BMP_pressure;BME280_temperature;BME280_humidity;BME280_pressure;Samples;Min_cycle;Max_cycle;Signal;HPM_P1;HPM_P2
2022/04/09 00:01:31;;;;;;;605.42;250.20;;;;;;;;;;5037781;28;20014;-83
2022/04/09 00:03:57;;;;;;;615.55;251.43;;;;;;;;;;5037236;28;20025;-85
2022/04/09 00:06:23;;;;;;;573.40;224.90;;;;;;;;;;5036477;28;20018;-83
2022/04/09 00:08:49;;;;;;;583.75;229.88;;;;;;;;;;5036544;28;20556;-83
2022/04/09 00:11:15;;;;;;;591.13;234.18;;;;;;;;;;5073486;22;20037;-87
2022/04/09 00:13:41;;;;;;;588.97;231.40;;;;;;;;;;5046930;28;20022;-95
2022/04/09 00:16:08;;;;;;;586.08;228.43;;;;;;;;;;5038559;28;20052;-94
2022/04/09 00:18:34;;;;;;;635.22;259.15;;;;;;;;;;5044264;28;20017;-83
2022/04/09 00:21:00;;;;;;;647.80;265.67;;;;;;;;;;5042772;28;20060;-92
2022/04/09 00:23:26;;;;;;;659.50;273.55;;;;;;;;;;5032295;28;20048;-95
2022/04/09 00:25:52;;;;;;;660.33;276.58;;;;;;;;;;5034367;28;20087;-90
2022/04/09 00:28:18;;;;;;;655.65;272.70;;;;;;;;;;5034279;28;20065;-93
2022/04/09 00:30:44;;;;;;;672.13;282.17;;;;;;;;;;5034162;28;20041;-94
2022/04/09 00:33:10;;;;;;;618.33;245.85;;;;;;;;;;5031996;28;20478;-94
2022/04/09 00:35:36;;;;;;;630.38;256.55;;;;;;;;;;5029393;28;20284;-92
2022/04/09 00:38:02;;;;;;;597.25;239.13;;;;;;;;;;5029285;28;20034;-92
2022/04/09 00:40:28;;;;;;;598.22;241.00;;;;;;;;;;5030490;28;20068;-93
2022/04/09 00:42:55;;;;;;;608.08;248.88;;;;;;;;;;5032568;28;20048;-95
2022/04/09 00:45:21;;;;;;;616.38;251.68;;;;;;;;;;5033253;28;20026;-91
2022/04/09 00:47:47;;;;;;;598.47;242.10;;;;;;;;;;5033935;28;20462;-84
2022/04/09 00:50:13;;;;;;;592.72;242.18;;;;;;;;;;5033595;28;20067;-92
2022/04/09 00:53:06;;;;;;;591.50;241.32;;;;;;;;;;5032714;28;20113;-92
2022/04/09 00:58:19;;;;;;;598.72;245.65;;;;;;;;;;5033549;28;20044;-91
2022/04/09 01:00:45;;;;;;;;;;;;;;;;;;5033798;28;20532;-94
2022/04/09 01:03:12;;;;;;;581.97;243.35;;;;;;;;;;5032503;28;20001;-93
2022/04/09 01:05:39;;;;;;;598.25;247.70;;;;;;;;;;5031246;28;20037;-92
2022/04/09 01:08:05;;;;;;;581.35;237.77;;;;;;;;;;5032334;28;20507;-91
2022/04/09 01:10:31;;;;;;;593.30;247.50;;;;;;;;;;5031071;28;20090;-96
2022/04/09 01:12:59;;;;;;;535.42;209.63;;;;;;;;;;5031035;28;20057;-91
2022/04/09 01:15:25;;;;;;;554.57;223.20;;;;;;;;;;5031428;28;20027;-93
2022/04/09 01:17:52;;;;;;;533.95;209.30;;;;;;;;;;5032335;28;20021;-95
2022/04/09 01:20:22;;;;;;;538.75;212.40;;;;;;;;;;5033082;28;20030;-91
2022/04/09 01:22:48;;;;;;;595.92;251.13;;;;;;;;;;5031840;28;20032;-92
2022/04/09 01:25:15;;;;;;;567.65;230.05;;;;;;;;;;5033078;28;20029;-91
2022/04/09 01:27:41;;;;;;;526.97;206.68;;;;;;;;;;5032023;28;20048;-87
2022/04/09 01:30:07;;;;;;;573.90;235.93;;;;;;;;;;5032111;28;20056;-91
2022/04/09 01:32:33;;;;;;;561.10;223.50;;;;;;;;;;5032243;28;20095;-90
2022/04/09 01:35:03;;;;;;;537.75;214.95;;;;;;;;;;5031979;28;20457;-92
2022/04/09 01:37:29;;;;;;;542.75;217.00;;;;;;;;;;5031912;28;20048;-94
2022/04/09 01:39:55;;;;;;;524.35;204.88;;;;;;;;;;5031198;28;20061;-92
2022/04/09 01:42:22;;;;;;;508.45;198.68;;;;;;;;;;5032445;28;20457;-93
2022/04/09 01:44:48;;;;;;;509.33;197.63;;;;;;;;;;5033230;28;20064;-93
2022/04/09 01:47:14;;;;;;;510.70;199.85;;;;;;;;;;5031561;28;20029;-92
2022/04/09 01:49:40;;;;;;;519.15;203.45;;;;;;;;;;5033544;28;20036;-93
2022/04/09 01:52:07;;;;;;;544.65;220.45;;;;;;;;;;5030046;28;20029;-91
2022/04/09 01:54:33;;;;;;;519.10;205.63;;;;;;;;;;5031518;28;20109;-92
2022/04/09 01:56:59;;;;;;;516.20;201.70;;;;;;;;;;5031738;28;20053;-93
2022/04/09 01:59:25;;;;;;;519.65;208.75;;;;;;;;;;5031874;28;20029;-91
2022/04/09 02:01:51;;;;;;;513.00;201.20;;;;;;;;;;5032662;28;20025;-86
2022/04/09 02:04:17;;;;;;;566.55;235.00;;;;;;;;;;5035189;28;20033;-88
2022/04/09 02:06:44;;;;;;;500.70;194.55;;;;;;;;;;5033638;28;20025;-93
2022/04/09 02:09:11;;;;;;;512.15;201.63;;;;;;;;;;5032885;28;20436;-92
2022/04/09 02:11:40;;;;;;;515.08;200.38;;;;;;;;;;5034531;28;20032;-95
2022/04/09 02:14:08;;;;;;;512.13;202.63;;;;;;;;;;5036527;28;20120;-92
2022/04/09 02:16:34;;;;;;;532.33;213.10;;;;;;;;;;5032617;28;20032;-91
2022/04/09 02:19:00;;;;;;;508.40;201.77;;;;;;;;;;5033213;28;20022;-92
2022/04/09 02:21:26;;;;;;;514.40;204.55;;;;;;;;;;5035193;28;20049;-93
2022/04/09 02:23:52;;;;;;;498.33;193.63;;;;;;;;;;5033283;28;20030;-85
2022/04/09 02:26:18;;;;;;;504.50;197.25;;;;;;;;;;5038964;28;20108;-93
2022/04/09 02:28:47;;;;;;;515.35;205.23;;;;;;;;;;5035859;28;20030;-94
2022/04/09 02:31:15;;;;;;;517.28;204.20;;;;;;;;;;5034322;28;20022;-93
2022/04/09 02:33:41;;;;;;;506.13;198.57;;;;;;;;;;5035645;28;20474;-95
2022/04/09 02:36:11;;;;;;;526.72;208.82;;;;;;;;;;5033001;28;20381;-95
2022/04/09 02:38:38;;;;;;;576.55;240.43;;;;;;;;;;5038753;28;20124;-95
2022/04/09 02:41:04;;;;;;;516.42;204.27;;;;;;;;;;5040158;28;20025;-92
2022/04/09 02:43:30;;;;;;;513.95;203.10;;;;;;;;;;5039790;28;20065;-95
2022/04/09 02:45:56;;;;;;;509.90;201.07;;;;;;;;;;5035269;28;20018;-93
2022/04/09 02:48:23;;;;;;;508.60;199.35;;;;;;;;;;5036992;28;20069;-92
2022/04/09 02:50:49;;;;;;;507.13;200.68;;;;;;;;;;5035905;28;20014;-86
2022/04/09 02:53:15;;;;;;;496.67;195.63;;;;;;;;;;5039826;28;20543;-89
2022/04/09 02:55:41;;;;;;;505.67;199.95;;;;;;;;;;5045473;28;20018;-86
2022/04/09 02:58:07;;;;;;;535.33;213.25;;;;;;;;;;5047718;28;20055;-89
2022/04/09 03:00:33;;;;;;;591.05;248.88;;;;;;;;;;5035965;28;20110;-91
2022/04/09 03:02:59;;;;;;;523.10;208.10;;;;;;;;;;5037961;28;20028;-94
2022/04/09 03:05:25;;;;;;;518.55;208.32;;;;;;;;;;5030924;28;20120;-87
2022/04/09 03:07:51;;;;;;;529.85;214.70;;;;;;;;;;5031672;28;20033;-94
2022/04/09 03:10:17;;;;;;;522.70;207.63;;;;;;;;;;5034846;28;20037;-94
2022/04/09 03:12:47;;;;;;;623.78;272.00;;;;;;;;;;5033315;28;20032;-92
2022/04/09 03:15:14;;;;;;;595.13;251.55;;;;;;;;;;5044247;28;20021;-93
2022/04/09 03:17:40;;;;;;;592.70;252.85;;;;;;;;;;5036001;28;20025;-95
2022/04/09 03:20:07;;;;;;;576.10;243.18;;;;;;;;;;5036223;28;20470;-94
2022/04/09 03:22:33;;;;;;;516.33;205.63;;;;;;;;;;5054391;28;20021;-83
2022/04/09 03:24:59;;;;;;;508.98;202.98;;;;;;;;;;5046854;28;20033;-83
2022/04/09 03:27:26;;;;;;;498.42;197.30;;;;;;;;;;5051133;28;20021;-83
2022/04/09 03:29:52;;;;;;;514.92;201.70;;;;;;;;;;5044074;28;20001;-94
2022/04/09 03:32:18;;;;;;;507.58;200.77;;;;;;;;;;5040233;28;20025;-90
2022/04/09 03:34:45;;;;;;;512.90;203.18;;;;;;;;;;5045200;28;20056;-93
2022/04/09 03:37:11;;;;;;;528.75;211.82;;;;;;;;;;5037096;28;20025;-94
2022/04/09 03:39:41;;;;;;;529.60;214.05;;;;;;;;;;5035422;28;20025;-88
2022/04/09 03:42:09;;;;;;;533.97;218.55;;;;;;;;;;5039314;28;20029;-89
2022/04/09 03:44:35;;;;;;;533.67;219.85;;;;;;;;;;5034719;28;20022;-94
2022/04/09 03:47:01;;;;;;;530.95;217.40;;;;;;;;;;5034109;28;20045;-95
2022/04/09 03:49:29;;;;;;;579.40;247.73;;;;;;;;;;5046627;28;20025;-82
2022/04/09 03:51:55;;;;;;;521.23;212.10;;;;;;;;;;5051701;28;20036;-86
2022/04/09 03:54:21;;;;;;;571.97;242.00;;;;;;;;;;5051509;28;20096;-84
2022/04/09 03:56:47;;;;;;;562.80;232.52;;;;;;;;;;5053378;28;20014;-88
2022/04/09 03:59:13;;;;;;;576.72;244.07;;;;;;;;;;5049239;28;20017;-83
2022/04/09 04:01:39;;;;;;;561.90;236.45;;;;;;;;;;5055538;28;20018;-83
2022/04/09 04:04:05;;;;;;;567.25;237.50;;;;;;;;;;5055724;28;20029;-88
2022/04/09 04:06:31;;;;;;;579.05;245.05;;;;;;;;;;5050350;28;20034;-89
2022/04/09 04:08:57;;;;;;;528.95;215.50;;;;;;;;;;5045413;28;20106;-83
2022/04/09 04:11:24;;;;;;;576.95;243.20;;;;;;;;;;5046787;28;20017;-90
2022/04/09 04:13:50;;;;;;;581.10;246.73;;;;;;;;;;5042274;28;20040;-90
2022/04/09 04:16:17;;;;;;;510.65;206.57;;;;;;;;;;5054087;28;20052;-89
2022/04/09 04:18:44;;;;;;;576.92;245.55;;;;;;;;;;5056563;28;20101;-84
2022/04/09 04:21:10;;;;;;;567.70;239.05;;;;;;;;;;5057382;28;20048;-86
2022/04/09 04:23:36;;;;;;;564.90;236.45;;;;;;;;;;5056737;28;20013;-86
2022/04/09 04:26:02;;;;;;;534.83;213.48;;;;;;;;;;5056818;28;20044;-83
2022/04/09 04:28:29;;;;;;;570.95;242.02;;;;;;;;;;5057969;28;20037;-84
2022/04/09 04:30:55;;;;;;;612.60;271.15;;;;;;;;;;5056410;28;20025;-91
2022/04/09 04:33:21;;;;;;;612.78;270.90;;;;;;;;;;5048451;28;20025;-94
2022/04/09 04:35:48;;;;;;;593.22;254.25;;;;;;;;;;5040189;28;20068;-92
2022/04/09 04:38:14;;;;;;;574.60;243.90;;;;;;;;;;5044270;28;20044;-92
2022/04/09 04:40:40;;;;;;;573.92;240.90;;;;;;;;;;5041629;28;20033;-94
2022/04/09 04:43:14;;;;;;;554.80;228.65;;;;;;;;;;5040549;28;20029;-93
2022/04/09 04:45:40;;;;;;;555.90;231.13;;;;;;;;;;5048931;28;20029;-93
2022/04/09 04:48:25;;;;;;;566.83;241.40;;;;;;;;;;5049979;28;20017;-96
2022/04/09 04:50:57;;;;;;;544.42;226.27;;;;;;;;;;5051631;28;20064;-89
2022/04/09 04:53:29;;;;;;;538.20;220.52;;;;;;;;;;5056632;28;20060;-86
2022/04/09 04:55:55;;;;;;;536.90;220.48;;;;;;;;;;5040403;28;20474;-93
2022/04/09 04:58:22;;;;;;;523.15;208.70;;;;;;;;;;5044506;28;20049;-83
2022/04/09 05:00:49;;;;;;;520.40;208.25;;;;;;;;;;5057819;28;20091;-84
2022/04/09 05:03:15;;;;;;;529.80;217.98;;;;;;;;;;5047434;28;20057;-93
2022/04/09 05:05:42;;;;;;;528.67;214.13;;;;;;;;;;5033661;28;20022;-94
2022/04/09 05:08:09;;;;;;;526.45;211.85;;;;;;;;;;5036448;28;20405;-90
2022/04/09 05:10:35;;;;;;;524.53;215.25;;;;;;;;;;5033843;28;20025;-94
2022/04/09 05:13:01;;;;;;;532.20;216.23;;;;;;;;;;5032725;28;20029;-84
2022/04/09 05:15:27;;;;;;;531.42;219.45;;;;;;;;;;5049016;28;20005;-84
2022/04/09 05:17:53;;;;;;;530.85;216.20;;;;;;;;;;5042173;28;20462;-93
2022/04/09 05:20:19;;;;;;;532.63;221.93;;;;;;;;;;5032962;28;20031;-94
2022/04/09 05:22:46;;;;;;;541.75;227.23;;;;;;;;;;5032438;28;20025;-93
2022/04/09 05:25:20;;;;;;;559.83;237.80;;;;;;;;;;5033514;28;20025;-91
2022/04/09 05:27:51;;;;;;;539.60;225.65;;;;;;;;;;5052265;28;20029;-83
2022/04/09 05:30:19;;;;;;;569.63;254.00;;;;;;;;;;5060612;28;20013;-83
2022/04/09 05:33:09;;;;;;;472.05;193.20;;;;;;;;;;5059673;28;20022;-83
2022/04/09 05:35:54;;;;;;;542.15;231.43;;;;;;;;;;5060144;28;20014;-83
2022/04/09 05:38:20;;;;;;;569.60;250.85;;;;;;;;;;5051856;28;20021;-92
2022/04/09 05:40:46;;;;;;;525.00;219.15;;;;;;;;;;5036703;28;20045;-93
2022/04/09 05:43:12;;;;;;;10.70;3.70;;;3.10;99.90;;;;;;5033837;28;20036;-87
2022/04/09 05:45:38;;;;;;;10.68;3.70;;;3.00;99.90;;;;;;5030070;28;20116;-89
2022/04/09 05:48:04;;;;;;;14.93;3.45;;;3.30;99.90;;;;;;5030047;28;20405;-89
2022/04/09 05:50:30;;;;;;;11.60;3.70;;;;;;;;;;5031148;28;20037;-89
2022/04/09 05:52:56;;;;;;;9.73;4.10;;;3.40;99.90;;;;;;5031372;28;20021;-89
2022/04/09 05:55:22;;;;;;;10.23;3.60;;;;;;;;;;5029959;28;20032;-90
2022/04/09 05:57:48;;;;;;;8.82;3.20;;;3.40;99.90;;;;;;5030054;28;20033;-90
2022/04/09 06:00:16;;;;;;;9.32;3.72;;;3.40;99.90;;;;;;5029560;28;20042;-91
2022/04/09 06:02:44;;;;;;;8.95;3.08;;;3.40;99.90;;;;;;5030384;28;20441;-89
2022/04/09 06:05:12;;;;;;;11.00;3.70;;;3.50;99.90;;;;;;5031772;28;20033;-90
2022/04/09 06:07:38;;;;;;;9.52;3.53;;;2.90;99.90;;;;;;5030695;28;20524;-89
2022/04/09 06:10:06;;;;;;;10.55;3.78;;;4.10;99.90;;;;;;5031040;28;20034;-90
2022/04/09 06:12:33;;;;;;;6.90;3.33;;;3.40;99.90;;;;;;5031892;28;20017;-90
2022/04/09 06:15:06;;;;;;;10.55;3.55;;;3.40;99.90;;;;;;5047713;28;20393;-90
2022/04/09 06:17:33;;;;;;;10.13;3.42;;;2.90;99.90;;;;;;5031857;28;20029;-89
2022/04/09 06:19:59;;;;;;;6.57;3.30;;;3.50;99.90;;;;;;5030804;28;20026;-90
2022/04/09 06:22:24;;;;;;;12.20;4.13;;;3.50;99.90;;;;;;5045945;28;20459;-90
2022/04/09 06:24:51;;;;;;;9.13;3.97;;;;;;;;;;5031102;28;20480;-88
2022/04/09 06:27:17;;;;;;;7.72;3.60;;;3.60;99.90;;;;;;5030394;28;20505;-89
2022/04/09 06:29:43;;;;;;;12.18;3.67;;;;;;;;;;5028715;28;20115;-88
2022/04/09 06:32:08;;;;;;;8.63;3.58;;;3.60;99.90;;;;;;5029829;28;20022;-91
2022/04/09 06:34:34;;;;;;;9.60;3.58;;;3.70;99.90;;;;;;5031120;28;20029;-89
2022/04/09 06:37:00;;;;;;;10.88;3.38;;;3.70;99.90;;;;;;5030050;28;20056;-90
2022/04/09 06:39:26;;;;;;;9.80;3.20;;;;;;;;;;5028674;28;20029;-88
2022/04/09 06:41:52;;;;;;;9.18;3.25;;;3.80;99.90;;;;;;5027438;28;20021;-91
2022/04/09 06:44:18;;;;;;;7.75;3.55;;;3.80;99.90;;;;;;5028674;28;20021;-89
2022/04/09 06:46:46;;;;;;;8.68;3.58;;;3.90;99.90;;;;;;5028732;28;20037;-90
2022/04/09 06:49:14;;;;;;;10.23;3.05;;;3.90;99.90;;;;;;5052235;28;20060;-89
2022/04/09 06:51:40;;;;;;;19.58;3.63;;;;;;;;;;5027191;28;20026;-89
2022/04/09 06:54:07;;;;;;;13.05;3.97;;;;;;;;;;5027084;28;20116;-90
2022/04/09 06:56:33;;;;;;;7.13;3.45;;;4.00;99.90;;;;;;5028112;28;20057;-90
2022/04/09 06:59:00;;;;;;;9.75;3.40;;;;;;;;;;5026921;28;20071;-90
2022/04/09 07:01:26;;;;;;;8.93;3.35;;;4.10;99.90;;;;;;5026836;28;20052;-89
2022/04/09 07:03:52;;;;;;;8.40;2.90;;;5.10;99.90;;;;;;5027111;28;20433;-89
2022/04/09 07:06:18;;;;;;;12.32;3.53;;;;;;;;;;5028308;28;20489;-89
2022/04/09 07:08:44;;;;;;;10.65;2.95;;;4.30;99.90;;;;;;5029134;28;20120;-89
2022/04/09 07:11:10;;;;;;;9.40;3.20;;;;;;;;;;5026766;28;20478;-90
2022/04/09 07:13:35;;;;;;;9.18;3.10;;;4.30;99.90;;;;;;5028059;28;20025;-90
2022/04/09 07:16:01;;;;;;;8.18;3.20;;;4.60;99.90;;;;;;5030616;28;20032;-88
2022/04/09 07:18:27;;;;;;;12.48;2.85;;;4.40;99.90;;;;;;5029994;28;20509;-91
2022/04/09 07:20:52;;;;;;;9.45;3.35;;;4.50;99.90;;;;;;5028243;28;20052;-90
2022/04/09 07:23:18;;;;;;;10.13;3.15;;;4.50;99.90;;;;;;5028064;28;20547;-90
2022/04/09 07:25:44;;;;;;;8.63;3.08;;;4.70;99.90;;;;;;5029484;28;20087;-89
2022/04/09 07:28:10;;;;;;;12.50;2.97;;;4.70;99.90;;;;;;5029437;28;20152;-90
2022/04/09 07:30:36;;;;;;;8.75;2.88;;;4.90;99.90;;;;;;5028259;28;20052;-89
2022/04/09 07:33:02;;;;;;;9.00;2.80;;;;;;;;;;5030210;28;20097;-91
2022/04/09 07:35:28;;;;;;;7.55;3.13;;;5.00;99.90;;;;;;5029703;28;20042;-90
2022/04/09 07:37:56;;;;;;;14.07;3.42;;;5.10;99.90;;;;;;5028452;28;20021;-89
2022/04/09 07:40:24;;;;;;;13.82;3.05;;;5.20;99.90;;;;;;5045051;28;20045;-90
2022/04/09 07:42:50;;;;;;;8.20;2.85;;;;;;;;;;5029527;28;20021;-89
2022/04/09 07:45:17;;;;;;;9.95;2.90;;;5.30;99.90;;;;;;5027844;28;20025;-90
2022/04/09 07:47:58;;;;;;;7.75;2.90;;;5.40;99.90;;;;;;5044487;28;20055;-91
2022/04/09 07:50:34;;;;;;;5.22;2.53;;;5.60;99.90;;;;;;5032345;28;20072;-90
2022/04/09 07:53:05;;;;;;;5.55;2.72;;;4.70;99.90;;;;;;5033014;28;20115;-89
2022/04/09 07:55:31;;;;;;;8.93;2.30;;;6.00;99.90;;;;;;5030222;28;20032;-90
2022/04/09 07:57:56;;;;;;;13.18;2.67;;;5.90;99.90;;;;;;5028943;28;20251;-90
2022/04/09 08:00:23;;;;;;;10.90;2.50;;;6.20;99.90;;;;;;5029292;28;20049;-91
2022/04/09 08:02:49;;;;;;;8.65;2.55;;;6.10;99.90;;;;;;5027607;28;20253;-90
2022/04/09 08:05:18;;;;;;;8.45;2.33;;;6.30;99.90;;;;;;5044636;28;20029;-91
2022/04/09 08:31:46;;;;;;;10.15;1.90;;;;;;;;;;4792347;29;20445;-89
2022/04/09 08:34:12;;;;;;;7.07;1.85;;;7.30;99.90;;;;;;4877725;29;20455;-89
2022/04/09 08:36:37;;;;;;;10.80;2.25;;;7.30;99.90;;;;;;4962526;28;20482;-90
2022/04/09 08:39:36;;;;;;;6.55;2.00;;;7.40;99.90;;;;;;4990061;28;20121;-95
2022/04/09 08:42:03;;;;;;;5.75;1.73;;;10.50;99.90;;;;;;5144715;22;20053;-91
2022/04/09 08:44:30;;;;;;;9.55;2.03;;;7.60;99.90;;;;;;5029151;28;20374;-91
2022/04/09 08:47:58;;;;;;;;;;;;;;;;;;;;;
2022/04/09 08:51:07;;;;;;;;;;;;;;;;;;;;;
2022/04/09 08:54:19;;;;;;;8.25;2.28;;;8.10;99.90;;;;;;4931904;29;20043;-92
2022/04/09 08:59:36;;;;;;;5.93;2.03;;;8.40;99.90;;;;;;4983238;28;20482;-86
2022/04/09 09:02:02;;;;;;;11.48;1.88;;;8.00;99.90;;;;;;5028833;28;20024;-87
2022/04/09 09:04:28;;;;;;;5.25;1.80;;;8.00;99.90;;;;;;5031958;28;20525;-87
2022/04/09 09:06:54;;;;;;;16.13;3.88;;;8.00;99.90;;;;;;5031630;28;20112;-88
2022/04/09 09:09:31;;;;;;;5.50;1.90;;;8.00;99.90;;;;;;5046930;28;20112;-87
2022/04/09 09:12:00;;;;;;;8.35;1.77;;;8.20;99.90;;;;;;5030392;28;20076;-87
2022/04/09 09:14:32;;;;;;;8.63;2.13;;;8.10;99.90;;;;;;5032092;28;20032;-87
2022/04/09 09:17:01;;;;;;;11.55;2.28;;;;;;;;;;5030422;28;20025;-86
2022/04/09 09:19:48;;;;;;;8.20;2.72;;;8.40;99.90;;;;;;5031489;28;20434;-85
2022/04/09 09:22:18;;;;;;;15.88;4.35;;;8.20;99.90;;;;;;5031225;28;20021;-85
2022/04/09 09:25:00;;;;;;;8.32;2.30;;;8.10;99.90;;;;;;5031163;28;20079;-85
2022/04/09 09:27:26;;;;;;;3.45;1.58;;;8.20;99.90;;;;;;5031280;28;20033;-85
2022/04/09 09:29:55;;;;;;;5.20;2.25;;;8.30;99.90;;;;;;5031300;28;20422;-84
2022/04/09 09:32:26;;;;;;;9.02;2.13;;;8.40;99.90;;;;;;5031179;28;20508;-85
2022/04/09 09:34:56;;;;;;;11.63;2.47;;;8.30;99.90;;;;;;5031069;28;20079;-88
2022/04/09 09:37:48;;;;;;;8.70;2.00;;;8.30;99.90;;;;;;5030817;28;20057;-90
2022/04/09 09:40:33;;;;;;;6.72;2.00;;;8.10;99.90;;;;;;4992736;28;20027;-90
2022/04/09 09:43:19;;;;;;;6.70;1.98;;;8.00;99.90;;;;;;5032427;28;20425;-90
2022/04/09 09:45:46;;;;;;;10.02;2.08;;;8.20;99.90;;;;;;5032377;28;20063;-90
2022/04/09 09:48:27;;;;;;;7.82;1.77;;;8.40;99.90;;;;;;5031251;28;20045;-89
2022/04/09 09:50:57;;;;;;;8.27;1.63;;;9.00;99.90;;;;;;5031602;28;20019;-89
2022/04/09 09:53:34;;;;;;;4.63;1.73;;;;;;;;;;5031358;28;20086;-90
2022/04/09 09:56:04;;;;;;;5.53;1.60;;;;;;;;;;5046769;28;20416;-89
2022/04/09 09:58:30;;;;;;;4.20;2.15;;;;;;;;;;5030998;28;20029;-90
2022/04/09 10:00:57;;;;;;;4.80;1.75;;;;;;;;;;5030838;28;20509;-89
2022/04/09 10:03:24;;;;;;;7.10;1.88;;;;;;;;;;5030682;28;20029;-88
2022/04/09 10:05:50;;;;;;;7.10;1.73;;;;;;;;;;5030779;28;20033;-91
2022/04/09 10:08:16;;;;;;;8.18;1.73;;;;;;;;;;5046729;28;20413;-89
2022/04/09 10:10:46;;;;;;;6.88;2.25;;;;;;;;;;5031138;28;20052;-91
2022/04/09 10:13:13;;;;;;;5.50;1.70;;;;;;;;;;5046624;28;20025;-90
2022/04/09 10:15:41;;;;;;;9.60;2.22;;;;;;;;;;5036866;28;20032;-90
2022/04/09 10:18:08;;;;;;;4.78;1.75;;;;;;;;;;5032377;28;20029;-88
2022/04/09 10:20:35;;;;;;;8.07;1.67;;;;;;;;;;5046517;28;20029;-90
2022/04/09 10:23:05;;;;;;;5.78;1.25;;;;;;;;;;5015683;28;20032;-89
2022/04/09 10:25:32;;;;;;;6.40;1.95;;;;;;;;;;5022592;28;20021;-89
2022/04/09 10:28:06;;;;;;;4.28;1.63;;;;;;;;;;5038735;28;20053;-90
2022/04/09 10:30:39;;;;;;;5.55;1.65;;;;;;;;;;5025580;28;20029;-90
2022/04/09 10:33:21;;;;;;;4.88;1.60;;;;;;;;;;5030273;28;20128;-92
2022/04/09 10:35:48;;;;;;;5.85;1.38;;;;;;;;;;5048091;28;20489;-89
2022/04/09 10:38:27;;;;;;;;;;;;;;;;;;;;;
2022/04/09 10:40:56;;;;;;;5.70;1.58;;;;;;;;;;5024556;28;20032;-92
2022/04/09 10:43:25;;;;;;;8.57;1.67;;;;;;;;;;5047082;28;20034;-90
2022/04/09 10:46:05;;;;;;;6.57;1.73;;;;;;;;;;5031241;28;20359;-90
2022/04/09 10:48:34;;;;;;;5.20;1.42;;;;;;;;;;5029512;28;20036;-91
2022/04/09 10:51:16;;;;;;;8.07;1.90;;;;;;;;;;5030073;28;20026;-90
2022/04/09 10:54:05;;;;;;;10.07;1.70;;;;;;;;;;5032121;28;20485;-92
2022/04/09 10:56:51;;;;;;;7.15;2.10;;;;;;;;;;5020949;28;20041;-91
2022/04/09 10:59:17;;;;;;;7.60;1.65;;;;;;;;;;5031685;28;20021;-92
2022/04/09 11:02:04;;;;;;;5.15;1.50;;;;;;;;;;5031202;28;20025;-90
2022/04/09 11:04:32;;;;;;;5.20;1.55;;;;;;;;;;5029123;28;20108;-90
2022/04/09 11:07:09;;;;;;;6.47;1.40;;;;;;;;;;5030474;28;20107;-91
2022/04/09 11:09:49;;;;;;;6.90;1.30;;;;;;;;;;5029977;28;20044;-90
2022/04/09 11:12:24;;;;;;;15.88;1.85;;;;;;;;;;5030360;28;20025;-93
2022/04/09 11:15:02;;;;;;;;;;;;;;;;;;;;;
2022/04/09 11:18:02;;;;;;;;;;;;;;;;;;;;;
2022/04/09 11:20:32;;;;;;;4.82;1.50;;;;;;;;;;5030026;28;20381;-91
2022/04/09 11:23:07;;;;;;;9.85;1.80;;;;;;;;;;5029506;28;20087;-92
2022/04/09 11:25:35;;;;;;;3.90;1.67;;;;;;;;;;5028493;28;20017;-90
2022/04/09 11:28:04;;;;;;;;;;;;;;;;;;5029845;28;20057;-92
2022/04/09 11:30:50;;;;;;;6.55;1.50;;;;;;;;;;5030653;28;19952;-92
2022/04/09 11:33:22;;;;;;;6.72;1.63;;;;;;;;;;5030051;28;20040;-91
2022/04/09 11:35:51;;;;;;;5.18;1.45;;;;;;;;;;5030011;28;20025;-90
2022/04/09 11:38:17;;;;;;;4.85;1.70;;;;;;;;;;5029740;28;20397;-90
2022/04/09 11:41:07;;;;;;;9.57;1.75;;;;;;;;;;5029933;28;20025;-91
2022/04/09 11:43:46;;;;;;;6.47;1.70;;;;;;;;;;5026883;28;20393;-91
2022/04/09 11:49:50;;;;;;;4.00;1.70;;;;;;;;;;4993642;28;20045;-92
2022/04/09 11:52:26;;;;;;;3.35;1.40;;;;;;;;;;5032017;28;20032;-91
2022/04/09 11:54:53;;;;;;;5.25;1.30;;;;;;;;;;5030359;28;20030;-90
2022/04/09 11:57:43;;;;;;;7.65;1.60;;;;;;;;;;5029714;28;20029;-91
2022/04/09 12:00:19;;;;;;;11.18;1.55;;;;;;;;;;5021720;28;20030;-92
2022/04/09 12:02:45;;;;;;;4.80;1.65;;;;;;;;;;5029975;28;20021;-90
2022/04/09 12:05:12;;;;;;;3.92;1.50;;;;;;;;;;5030178;28;20022;-90
2022/04/09 12:07:42;;;;;;;6.13;1.67;;;;;;;;;;5028567;28;20033;-90
2022/04/09 12:10:11;;;;;;;8.70;2.20;;;;;;;;;;5029844;28;20096;-90
2022/04/09 12:12:46;;;;;;;8.93;1.50;;;;;;;;;;5029194;28;20057;-92
2022/04/09 12:15:36;;;;;;;7.32;1.98;;;;;;;;;;5029007;28;20029;-92
2022/04/09 12:18:31;;;;;;;;;;;;;;;;;;;;;
2022/04/09 12:21:02;;;;;;;4.60;1.70;;;;;;;;;;5030248;28;20503;-90
2022/04/09 12:23:36;;;;;;;5.80;1.70;;;;;;;;;;5028541;28;20029;-91
2022/04/09 12:26:03;;;;;;;4.93;1.80;;;;;;;;;;5028604;28;20469;-94
2022/04/09 12:28:33;;;;;;;5.35;1.70;;;;;;;;;;5036314;28;20065;-91
2022/04/09 12:31:00;;;;;;;7.15;1.92;;;;;;;;;;5029749;28;20035;-91
2022/04/09 12:33:26;;;;;;;17.80;3.30;;;;;;;;;;5028609;28;20508;-89
2022/04/09 12:36:05;;;;;;;9.68;2.08;;;;;;;;;;5018750;28;20036;-89
2022/04/09 12:38:33;;;;;;;4.47;1.52;;;;;;;;;;5033384;28;20029;-88
2022/04/09 12:41:01;;;;;;;;;;;;;;;;;;5030661;28;20024;-88
2022/04/09 12:43:40;;;;;;;5.80;1.67;;;;;;;;;;5028667;28;20396;-89
2022/04/09 12:46:11;;;;;;;5.28;1.60;;;;;;;;;;5032426;28;20074;-93
2022/04/09 12:48:41;;;;;;;5.15;1.67;;;;;;;;;;5017679;28;20030;-89
2022/04/09 12:51:08;;;;;;;5.45;1.63;;;;;;;;;;5011047;28;20018;-88
2022/04/09 12:53:34;;;;;;;3.22;1.35;;;;;;;;;;5012592;28;20105;-90
2022/04/09 12:56:03;;;;;;;4.03;1.50;;;;;;;;;;5010982;28;20025;-89
2022/04/09 12:58:30;;;;;;;4.20;1.48;;;;;;;;;;5012203;28;20025;-87
2022/04/09 13:00:57;;;;;;;5.93;1.90;;;;;;;;;;5012029;28;20032;-88
2022/04/09 13:03:23;;;;;;;3.33;1.40;;;;;;;;;;5012167;28;20100;-89
2022/04/09 13:05:49;;;;;;;5.90;1.50;;;;;;;;;;5012795;28;20073;-89
2022/04/09 13:08:15;;;;;;;10.48;1.60;;;;;;;;;;5010657;28;20062;-90
2022/04/09 13:10:41;;;;;;;8.38;1.50;;;;;;;;;;5011918;28;20022;-91
2022/04/09 13:13:07;;;;;;;5.03;1.45;;;;;;;;;;5011743;28;20029;-89
2022/04/09 13:15:33;;;;;;;4.60;1.35;;;;;;;;;;5010451;28;20022;-89
2022/04/09 13:17:59;;;;;;;4.95;1.38;;;;;;;;;;5011890;28;20029;-88
2022/04/09 13:20:25;;;;;;;3.88;1.50;;;;;;;;;;5010630;28;20022;-88
2022/04/09 13:22:51;;;;;;;7.10;1.55;;;;;;;;;;5012470;28;20025;-88
2022/04/09 13:25:19;;;;;;;6.10;1.40;;;;;;;;;;5011707;28;20028;-88
2022/04/09 13:27:49;;;;;;;3.97;1.30;;;;;;;;;;5012212;28;20056;-90
2022/04/09 13:30:16;;;;;;;4.30;1.40;;;;;;;;;;5012498;28;20061;-87
2022/04/09 13:32:42;;;;;;;3.85;1.38;;;;;;;;;;5011700;28;20029;-87
2022/04/09 13:35:08;;;;;;;4.20;1.40;;;;;;;;;;5010403;28;20132;-90
2022/04/09 13:37:34;;;;;;;4.65;1.30;;;;;;;;;;5011878;28;20029;-87
2022/04/09 13:40:00;;;;;;;5.18;1.55;;;;;;;;;;5011469;28;20105;-89
2022/04/09 13:42:26;;;;;;;7.70;1.30;;;;;;;;;;5012384;28;20116;-89
2022/04/09 13:44:52;;;;;;;9.60;1.20;;;;;;;;;;5012382;28;20022;-88
2022/04/09 13:47:18;;;;;;;3.92;2.08;;;;;;;;;;5010066;28;20045;-87
2022/04/09 13:49:44;;;;;;;4.28;1.20;;;;;;;;;;5010617;28;20279;-88
2022/04/09 13:52:11;;;;;;;4.18;1.60;;;;;;;;;;5010074;28;20025;-88
2022/04/09 13:54:37;;;;;;;2.42;1.15;;;;;;;;;;5010419;28;20029;-89
2022/04/09 13:57:04;;;;;;;4.03;1.02;;;;;;;;;;5010041;28;20022;-88
2022/04/09 13:59:34;;;;;;;4.07;1.13;;;;;;;;;;5011735;28;20025;-93
2022/04/09 14:02:03;;;;;;;6.55;1.15;;;;;;;;;;5011045;28;20022;-88
2022/04/09 14:04:29;;;;;;;3.58;1.23;;;;;;;;;;5012370;28;20104;-88
2022/04/09 14:06:55;;;;;;;2.88;1.05;;;;;;;;;;5011122;28;20479;-89
2022/04/09 14:09:21;;;;;;;3.30;1.15;;;;;;;;;;5010682;28;20060;-87
2022/04/09 14:11:48;;;;;;;2.85;1.10;;;;;;;;;;5011268;28;20030;-88
2022/04/09 14:14:15;;;;;;;3.90;0.98;;;;;;;;;;5011296;28;20026;-86
2022/04/09 14:16:42;;;;;;;1.70;1.00;;;;;;;;;;5012492;28;20478;-88
2022/04/09 14:19:08;;;;;;;2.58;1.00;;;;;;;;;;5010488;28;20433;-89
2022/04/09 14:21:34;;;;;;;4.43;1.65;;;;;;;;;;5011437;28;20029;-89
2022/04/09 14:24:00;;;;;;;4.70;1.30;;;;;;;;;;5011484;28;20072;-90
2022/04/09 14:26:26;;;;;;;3.45;1.10;;;;;;;;;;5011970;28;20034;-91
2022/04/09 14:28:53;;;;;;;5.18;1.20;;;;;;;;;;5011891;28;20072;-90
2022/04/09 14:31:19;;;;;;;4.43;0.90;;;;;;;;;;5009673;28;20025;-91
2022/04/09 14:33:46;;;;;;;4.82;1.33;;;;;;;;;;5010734;28;20520;-89
2022/04/09 14:36:12;;;;;;;5.63;1.23;;;;;;;;;;5011122;28;20049;-91
2022/04/09 14:38:38;;;;;;;3.50;1.30;;;;;;;;;;5009464;28;20120;-88
2022/04/09 14:41:04;;;;;;;4.68;1.30;;;;;;;;;;5009700;28;20026;-90
2022/04/09 14:43:31;;;;;;;6.53;1.55;;;;;;;;;;5021420;28;20037;-88
2022/04/09 14:45:57;;;;;;;4.07;1.17;;;;;;;;;;5014603;28;20075;-90
2022/04/09 14:48:23;;;;;;;2.88;1.10;;;;;;;;;;5024510;28;20037;-88